sensor_id;sensor_type;location;lat;lon;timestamp;P1;durP1;ratioP1;P2;durP2;ratioP2
53879;SDS011;39791;53.184;5.486;2022-10-22T00:00:02;10.02;;;6.03;;
53879;SDS011;39791;53.184;5.486;2022-10-22T00:02:33;19.90;;;7.15;;
53879;SDS011;39791;53.184;5.486;2022-10-22T00:04:58;15.57;;;6.40;;
53879;SDS011;39791;53.184;5.486;2022-10-22T00:07:24;9.95;;;6.43;;
53879;SDS011;39791;53.184;5.486;2022-10-22T00:09:49;12.43;;;7.00;;
53879;SDS011;39791;53.184;5.486;2022-10-22T00:12:15;12.38;;;7.03;;
53879;SDS011;39791;53.184;5.486;2022-10-22T00:14:41;9.48;;;6.43;;
53879;SDS011;39791;53.184;5.486;2022-10-22T00:17:07;11.43;;;6.68;;
53879;SDS011;39791;53.184;5.486;2022-10-22T00:19:32;13.23;;;6.78;;
53879;SDS011;39791;53.184;5.486;2022-10-22T00:21:58;12.63;;;6.55;;
53879;SDS011;39791;53.184;5.486;2022-10-22T00:24:24;10.27;;;6.57;;
53879;SDS011;39791;53.184;5.486;2022-10-22T00:26:50;8.90;;;6.45;;
53879;SDS011;39791;53.184;5.486;2022-10-22T00:29:16;10.05;;;6.38;;
53879;SDS011;39791;53.184;5.486;2022-10-22T00:31:45;9.85;;;6.38;;
53879;SDS011;39791;53.184;5.486;2022-10-22T00:34:14;11.88;;;6.20;;
53879;SDS011;39791;53.184;5.486;2022-10-22T00:36:41;15.15;;;6.95;;
53879;SDS011;39791;53.184;5.486;2022-10-22T00:39:06;10.18;;;5.57;;
53879;SDS011;39791;53.184;5.486;2022-10-22T00:41:32;18.17;;;6.43;;
53879;SDS011;39791;53.184;5.486;2022-10-22T00:44:00;15.35;;;6.93;;
53879;SDS011;39791;53.184;5.486;2022-10-22T00:46:27;11.73;;;6.47;;
53879;SDS011;39791;53.184;5.486;2022-10-22T00:48:53;16.92;;;7.22;;
53879;SDS011;39791;53.184;5.486;2022-10-22T00:51:21;12.27;;;6.20;;
53879;SDS011;39791;53.184;5.486;2022-10-22T00:53:50;8.23;;;5.35;;
53879;SDS011;39791;53.184;5.486;2022-10-22T00:56:20;8.00;;;5.63;;
53879;SDS011;39791;53.184;5.486;2022-10-22T00:58:47;12.15;;;6.65;;
53879;SDS011;39791;53.184;5.486;2022-10-22T01:01:17;8.75;;;6.25;;
53879;SDS011;39791;53.184;5.486;2022-10-22T01:03:45;10.60;;;6.13;;
53879;SDS011;39791;53.184;5.486;2022-10-22T01:06:14;8.45;;;5.43;;
53879;SDS011;39791;53.184;5.486;2022-10-22T01:08:54;8.48;;;5.70;;
53879;SDS011;39791;53.184;5.486;2022-10-22T01:11:52;17.40;;;6.43;;
53879;SDS011;39791;53.184;5.486;2022-10-22T01:26:27;8.75;;;5.30;;
53879;SDS011;39791;53.184;5.486;2022-10-22T01:32:01;8.93;;;5.68;;
53879;SDS011;39791;53.184;5.486;2022-10-22T01:34:31;9.95;;;5.90;;
53879;SDS011;39791;53.184;5.486;2022-10-22T01:36:58;9.98;;;4.40;;
53879;SDS011;39791;53.184;5.486;2022-10-22T01:39:26;12.52;;;5.45;;
53879;SDS011;39791;53.184;5.486;2022-10-22T01:41:54;10.50;;;5.90;;
53879;SDS011;39791;53.184;5.486;2022-10-22T01:44:28;14.57;;;6.40;;
53879;SDS011;39791;53.184;5.486;2022-10-22T01:47:12;9.85;;;5.85;;
53879;SDS011;39791;53.184;5.486;2022-10-22T01:55:28;8.63;;;5.30;;
53879;SDS011;39791;53.184;5.486;2022-10-22T02:00:45;11.30;;;5.30;;
53879;SDS011;39791;53.184;5.486;2022-10-22T02:03:29;12.68;;;5.20;;
53879;SDS011;39791;53.184;5.486;2022-10-22T02:06:04;14.43;;;6.13;;
53879;SDS011;39791;53.184;5.486;2022-10-22T02:08:36;9.35;;;5.50;;
53879;SDS011;39791;53.184;5.486;2022-10-22T02:11:03;10.95;;;5.95;;
53879;SDS011;39791;53.184;5.486;2022-10-22T02:13:30;13.32;;;5.10;;
53879;SDS011;39791;53.184;5.486;2022-10-22T02:16:02;8.13;;;4.68;;
53879;SDS011;39791;53.184;5.486;2022-10-22T02:18:31;12.30;;;4.95;;
53879;SDS011;39791;53.184;5.486;2022-10-22T02:20:58;12.57;;;4.80;;
53879;SDS011;39791;53.184;5.486;2022-10-22T02:23:24;9.98;;;5.05;;
53879;SDS011;39791;53.184;5.486;2022-10-22T02:25:53;15.88;;;5.57;;
53879;SDS011;39791;53.184;5.486;2022-10-22T02:28:29;13.48;;;5.28;;
53879;SDS011;39791;53.184;5.486;2022-10-22T02:31:04;13.30;;;5.03;;
53879;SDS011;39791;53.184;5.486;2022-10-22T02:33:40;8.90;;;5.20;;
53879;SDS011;39791;53.184;5.486;2022-10-22T02:36:12;12.35;;;5.68;;
53879;SDS011;39791;53.184;5.486;2022-10-22T02:38:39;10.18;;;5.18;;
53879;SDS011;39791;53.184;5.486;2022-10-22T02:41:06;11.50;;;5.32;;
53879;SDS011;39791;53.184;5.486;2022-10-22T02:43:38;13.35;;;5.22;;
53879;SDS011;39791;53.184;5.486;2022-10-22T02:46:06;12.60;;;5.50;;
53879;SDS011;39791;53.184;5.486;2022-10-22T02:48:32;14.48;;;5.60;;
53879;SDS011;39791;53.184;5.486;2022-10-22T02:50:58;9.63;;;4.75;;
53879;SDS011;39791;53.184;5.486;2022-10-22T02:53:23;15.80;;;5.30;;
53879;SDS011;39791;53.184;5.486;2022-10-22T02:55:49;14.52;;;5.07;;
53879;SDS011;39791;53.184;5.486;2022-10-22T02:58:14;13.73;;;5.20;;
53879;SDS011;39791;53.184;5.486;2022-10-22T03:00:40;11.20;;;4.78;;
53879;SDS011;39791;53.184;5.486;2022-10-22T03:03:06;13.63;;;5.10;;
53879;SDS011;39791;53.184;5.486;2022-10-22T03:05:31;9.88;;;4.95;;
53879;SDS011;39791;53.184;5.486;2022-10-22T03:07:57;16.63;;;4.93;;
53879;SDS011;39791;53.184;5.486;2022-10-22T03:10:22;12.43;;;4.70;;
53879;SDS011;39791;53.184;5.486;2022-10-22T03:12:48;10.93;;;4.32;;
53879;SDS011;39791;53.184;5.486;2022-10-22T03:15:13;13.10;;;4.82;;
53879;SDS011;39791;53.184;5.486;2022-10-22T03:17:39;17.50;;;5.10;;
53879;SDS011;39791;53.184;5.486;2022-10-22T03:20:04;9.30;;;4.72;;
53879;SDS011;39791;53.184;5.486;2022-10-22T03:22:32;10.13;;;4.45;;
53879;SDS011;39791;53.184;5.486;2022-10-22T03:24:59;9.25;;;4.43;;
53879;SDS011;39791;53.184;5.486;2022-10-22T03:27:31;14.60;;;4.65;;
53879;SDS011;39791;53.184;5.486;2022-10-22T03:29:59;8.75;;;5.13;;
53879;SDS011;39791;53.184;5.486;2022-10-22T03:32:25;12.50;;;4.90;;
53879;SDS011;39791;53.184;5.486;2022-10-22T03:34:51;15.60;;;5.30;;
53879;SDS011;39791;53.184;5.486;2022-10-22T03:37:16;10.57;;;5.13;;
53879;SDS011;39791;53.184;5.486;2022-10-22T03:39:43;12.63;;;4.80;;
53879;SDS011;39791;53.184;5.486;2022-10-22T03:42:09;13.50;;;5.18;;
53879;SDS011;39791;53.184;5.486;2022-10-22T03:44:36;9.65;;;4.40;;
53879;SDS011;39791;53.184;5.486;2022-10-22T03:47:02;18.92;;;4.88;;
53879;SDS011;39791;53.184;5.486;2022-10-22T03:49:28;12.82;;;4.85;;
53879;SDS011;39791;53.184;5.486;2022-10-22T03:51:54;11.30;;;5.10;;
53879;SDS011;39791;53.184;5.486;2022-10-22T03:54:19;6.20;;;3.70;;
53879;SDS011;39791;53.184;5.486;2022-10-22T03:56:45;14.45;;;5.15;;
53879;SDS011;39791;53.184;5.486;2022-10-22T03:59:10;15.65;;;4.05;;
53879;SDS011;39791;53.184;5.486;2022-10-22T04:01:37;16.52;;;4.05;;
53879;SDS011;39791;53.184;5.486;2022-10-22T04:04:03;13.48;;;4.10;;
53879;SDS011;39791;53.184;5.486;2022-10-22T04:06:29;13.70;;;4.03;;
53879;SDS011;39791;53.184;5.486;2022-10-22T04:08:54;10.40;;;4.13;;
53879;SDS011;39791;53.184;5.486;2022-10-22T04:11:20;15.35;;;4.38;;
53879;SDS011;39791;53.184;5.486;2022-10-22T04:13:46;14.18;;;4.15;;
53879;SDS011;39791;53.184;5.486;2022-10-22T04:16:15;10.52;;;3.78;;
53879;SDS011;39791;53.184;5.486;2022-10-22T04:18:43;13.30;;;3.72;;
53879;SDS011;39791;53.184;5.486;2022-10-22T04:21:10;12.75;;;3.78;;
53879;SDS011;39791;53.184;5.486;2022-10-22T04:23:37;7.72;;;3.63;;
53879;SDS011;39791;53.184;5.486;2022-10-22T04:26:04;7.80;;;3.33;;
53879;SDS011;39791;53.184;5.486;2022-10-22T04:28:31;12.48;;;4.25;;
53879;SDS011;39791;53.184;5.486;2022-10-22T04:30:57;7.68;;;3.22;;
53879;SDS011;39791;53.184;5.486;2022-10-22T04:33:23;16.63;;;4.50;;
53879;SDS011;39791;53.184;5.486;2022-10-22T04:35:48;12.07;;;4.18;;
53879;SDS011;39791;53.184;5.486;2022-10-22T04:38:14;16.52;;;4.32;;
53879;SDS011;39791;53.184;5.486;2022-10-22T04:40:40;10.95;;;3.78;;
53879;SDS011;39791;53.184;5.486;2022-10-22T04:43:05;11.73;;;3.47;;
53879;SDS011;39791;53.184;5.486;2022-10-22T04:45:31;14.60;;;3.95;;
53879;SDS011;39791;53.184;5.486;2022-10-22T04:47:58;13.13;;;4.30;;
53879;SDS011;39791;53.184;5.486;2022-10-22T04:50:23;12.55;;;3.70;;
53879;SDS011;39791;53.184;5.486;2022-10-22T04:52:49;12.90;;;3.50;;
53879;SDS011;39791;53.184;5.486;2022-10-22T04:55:14;9.50;;;3.47;;
53879;SDS011;39791;53.184;5.486;2022-10-22T04:57:40;16.52;;;3.42;;
53879;SDS011;39791;53.184;5.486;2022-10-22T05:00:06;12.40;;;3.75;;
53879;SDS011;39791;53.184;5.486;2022-10-22T05:02:32;10.98;;;3.78;;
53879;SDS011;39791;53.184;5.486;2022-10-22T05:04:57;13.05;;;4.38;;
53879;SDS011;39791;53.184;5.486;2022-10-22T05:07:23;12.15;;;4.07;;
53879;SDS011;39791;53.184;5.486;2022-10-22T05:09:49;12.73;;;3.45;;
53879;SDS011;39791;53.184;5.486;2022-10-22T05:12:14;8.63;;;3.58;;
53879;SDS011;39791;53.184;5.486;2022-10-22T05:14:40;11.50;;;3.75;;
53879;SDS011;39791;53.184;5.486;2022-10-22T05:17:05;11.55;;;3.85;;
53879;SDS011;39791;53.184;5.486;2022-10-22T05:19:31;13.68;;;3.90;;
53879;SDS011;39791;53.184;5.486;2022-10-22T05:21:58;11.00;;;3.50;;
53879;SDS011;39791;53.184;5.486;2022-10-22T05:24:25;11.10;;;3.60;;
53879;SDS011;39791;53.184;5.486;2022-10-22T05:26:53;11.77;;;4.05;;
53879;SDS011;39791;53.184;5.486;2022-10-22T05:29:21;17.88;;;4.53;;
53879;SDS011;39791;53.184;5.486;2022-10-22T05:31:47;15.38;;;4.03;;
53879;SDS011;39791;53.184;5.486;2022-10-22T05:34:13;12.48;;;3.55;;
53879;SDS011;39791;53.184;5.486;2022-10-22T05:36:38;12.13;;;3.85;;
53879;SDS011;39791;53.184;5.486;2022-10-22T05:39:04;14.77;;;3.70;;
53879;SDS011;39791;53.184;5.486;2022-10-22T05:41:31;7.20;;;3.40;;
53879;SDS011;39791;53.184;5.486;2022-10-22T05:43:58;10.93;;;3.55;;
53879;SDS011;39791;53.184;5.486;2022-10-22T05:46:25;14.25;;;4.22;;
53879;SDS011;39791;53.184;5.486;2022-10-22T05:48:52;8.38;;;3.50;;
53879;SDS011;39791;53.184;5.486;2022-10-22T05:51:20;13.88;;;3.80;;
53879;SDS011;39791;53.184;5.486;2022-10-22T05:53:49;12.82;;;3.88;;
53879;SDS011;39791;53.184;5.486;2022-10-22T05:56:25;10.95;;;3.55;;
53879;SDS011;39791;53.184;5.486;2022-10-22T05:58:52;11.95;;;3.97;;
53879;SDS011;39791;53.184;5.486;2022-10-22T06:01:19;10.82;;;3.45;;
53879;SDS011;39791;53.184;5.486;2022-10-22T06:03:47;18.70;;;3.90;;
53879;SDS011;39791;53.184;5.486;2022-10-22T06:08:48;11.48;;;4.00;;
53879;SDS011;39791;53.184;5.486;2022-10-22T06:11:16;12.88;;;3.78;;
53879;SDS011;39791;53.184;5.486;2022-10-22T06:13:46;6.70;;;3.22;;
53879;SDS011;39791;53.184;5.486;2022-10-22T06:16:12;10.45;;;3.63;;
53879;SDS011;39791;53.184;5.486;2022-10-22T06:18:38;15.63;;;3.92;;
53879;SDS011;39791;53.184;5.486;2022-10-22T06:21:07;15.90;;;4.00;;
53879;SDS011;39791;53.184;5.486;2022-10-22T06:23:35;8.63;;;3.40;;
53879;SDS011;39791;53.184;5.486;2022-10-22T06:26:01;16.95;;;3.40;;
53879;SDS011;39791;53.184;5.486;2022-10-22T06:28:27;10.68;;;3.85;;
53879;SDS011;39791;53.184;5.486;2022-10-22T06:30:52;15.05;;;3.58;;
53879;SDS011;39791;53.184;5.486;2022-10-22T06:33:18;10.18;;;4.10;;
53879;SDS011;39791;53.184;5.486;2022-10-22T06:35:43;16.17;;;4.28;;
53879;SDS011;39791;53.184;5.486;2022-10-22T06:38:09;13.77;;;4.50;;
53879;SDS011;39791;53.184;5.486;2022-10-22T06:40:35;13.13;;;4.07;;
53879;SDS011;39791;53.184;5.486;2022-10-22T06:43:00;17.65;;;4.40;;
53879;SDS011;39791;53.184;5.486;2022-10-22T06:45:26;10.25;;;3.47;;
53879;SDS011;39791;53.184;5.486;2022-10-22T06:47:52;13.38;;;3.88;;
53879;SDS011;39791;53.184;5.486;2022-10-22T06:50:18;15.45;;;3.63;;
53879;SDS011;39791;53.184;5.486;2022-10-22T06:52:43;11.40;;;3.65;;
53879;SDS011;39791;53.184;5.486;2022-10-22T06:55:09;13.35;;;3.60;;
53879;SDS011;39791;53.184;5.486;2022-10-22T06:57:35;19.45;;;4.10;;
53879;SDS011;39791;53.184;5.486;2022-10-22T07:00:00;14.02;;;3.92;;
53879;SDS011;39791;53.184;5.486;2022-10-22T07:02:26;10.70;;;4.25;;
53879;SDS011;39791;53.184;5.486;2022-10-22T07:04:51;10.75;;;3.72;;
53879;SDS011;39791;53.184;5.486;2022-10-22T07:07:17;12.27;;;4.22;;
53879;SDS011;39791;53.184;5.486;2022-10-22T07:09:42;13.45;;;3.88;;
53879;SDS011;39791;53.184;5.486;2022-10-22T07:12:10;14.05;;;4.07;;
53879;SDS011;39791;53.184;5.486;2022-10-22T07:14:37;13.70;;;3.97;;
53879;SDS011;39791;53.184;5.486;2022-10-22T07:17:03;16.00;;;4.82;;
53879;SDS011;39791;53.184;5.486;2022-10-22T07:19:28;11.18;;;3.95;;
53879;SDS011;39791;53.184;5.486;2022-10-22T07:21:55;9.60;;;3.90;;
53879;SDS011;39791;53.184;5.486;2022-10-22T07:24:21;15.50;;;3.75;;
53879;SDS011;39791;53.184;5.486;2022-10-22T07:26:46;13.98;;;3.80;;
53879;SDS011;39791;53.184;5.486;2022-10-22T07:29:12;10.15;;;3.55;;
53879;SDS011;39791;53.184;5.486;2022-10-22T07:31:39;11.95;;;3.90;;
53879;SDS011;39791;53.184;5.486;2022-10-22T07:34:05;9.38;;;3.92;;
53879;SDS011;39791;53.184;5.486;2022-10-22T07:36:31;11.82;;;3.33;;
53879;SDS011;39791;53.184;5.486;2022-10-22T07:38:57;12.45;;;4.07;;
53879;SDS011;39791;53.184;5.486;2022-10-22T07:41:24;15.02;;;4.25;;
53879;SDS011;39791;53.184;5.486;2022-10-22T07:43:51;14.55;;;4.00;;
53879;SDS011;39791;53.184;5.486;2022-10-22T07:46:16;12.18;;;3.38;;
53879;SDS011;39791;53.184;5.486;2022-10-22T07:48:42;11.70;;;3.38;;
53879;SDS011;39791;53.184;5.486;2022-10-22T07:51:08;11.55;;;3.50;;
53879;SDS011;39791;53.184;5.486;2022-10-22T07:53:34;12.27;;;4.18;;
53879;SDS011;39791;53.184;5.486;2022-10-22T07:55:59;12.27;;;3.72;;
53879;SDS011;39791;53.184;5.486;2022-10-22T07:58:25;22.15;;;4.18;;
53879;SDS011;39791;53.184;5.486;2022-10-22T08:00:53;9.30;;;3.22;;
53879;SDS011;39791;53.184;5.486;2022-10-22T08:03:20;15.02;;;4.38;;
53879;SDS011;39791;53.184;5.486;2022-10-22T08:05:46;13.15;;;3.40;;
53879;SDS011;39791;53.184;5.486;2022-10-22T08:08:12;12.48;;;3.60;;
53879;SDS011;39791;53.184;5.486;2022-10-22T08:10:39;12.50;;;2.97;;
53879;SDS011;39791;53.184;5.486;2022-10-22T08:13:05;11.20;;;3.08;;
53879;SDS011;39791;53.184;5.486;2022-10-22T08:15:31;14.40;;;3.40;;
53879;SDS011;39791;53.184;5.486;2022-10-22T08:17:57;6.53;;;3.10;;
53879;SDS011;39791;53.184;5.486;2022-10-22T08:20:22;12.10;;;3.15;;
53879;SDS011;39791;53.184;5.486;2022-10-22T08:22:48;11.38;;;3.25;;
53879;SDS011;39791;53.184;5.486;2022-10-22T08:25:13;5.72;;;2.90;;
53879;SDS011;39791;53.184;5.486;2022-10-22T08:27:39;15.90;;;3.65;;
53879;SDS011;39791;53.184;5.486;2022-10-22T08:30:05;9.18;;;2.92;;
53879;SDS011;39791;53.184;5.486;2022-10-22T08:32:31;9.13;;;2.58;;
53879;SDS011;39791;53.184;5.486;2022-10-22T08:34:57;10.32;;;2.63;;
53879;SDS011;39791;53.184;5.486;2022-10-22T08:37:22;8.73;;;3.03;;
53879;SDS011;39791;53.184;5.486;2022-10-22T08:39:48;12.45;;;3.22;;
53879;SDS011;39791;53.184;5.486;2022-10-22T08:45:12;10.38;;;3.10;;
53879;SDS011;39791;53.184;5.486;2022-10-22T08:50:22;14.85;;;3.00;;
53879;SDS011;39791;53.184;5.486;2022-10-22T08:52:54;5.50;;;2.60;;
53879;SDS011;39791;53.184;5.486;2022-10-22T08:55:23;15.95;;;3.70;;
53879;SDS011;39791;53.184;5.486;2022-10-22T08:58:09;9.57;;;3.17;;
53879;SDS011;39791;53.184;5.486;2022-10-22T09:01:09;14.38;;;3.72;;
53879;SDS011;39791;53.184;5.486;2022-10-22T09:03:52;11.80;;;3.45;;
53879;SDS011;39791;53.184;5.486;2022-10-22T09:06:25;12.93;;;2.55;;
53879;SDS011;39791;53.184;5.486;2022-10-22T09:08:52;11.13;;;3.42;;
53879;SDS011;39791;53.184;5.486;2022-10-22T09:14:00;10.15;;;3.17;;
53879;SDS011;39791;53.184;5.486;2022-10-22T09:16:52;11.27;;;2.63;;
53879;SDS011;39791;53.184;5.486;2022-10-22T09:22:32;13.95;;;3.40;;
53879;SDS011;39791;53.184;5.486;2022-10-22T09:25:20;11.43;;;3.35;;
53879;SDS011;39791;53.184;5.486;2022-10-22T09:27:49;13.43;;;3.05;;
53879;SDS011;39791;53.184;5.486;2022-10-22T09:30:21;11.25;;;3.28;;
53879;SDS011;39791;53.184;5.486;2022-10-22T09:33:23;10.88;;;3.45;;
53879;SDS011;39791;53.184;5.486;2022-10-22T09:38:28;13.18;;;3.78;;
53879;SDS011;39791;53.184;5.486;2022-10-22T09:40:57;12.90;;;3.50;;
53879;SDS011;39791;53.184;5.486;2022-10-22T09:43:24;18.67;;;3.95;;
53879;SDS011;39791;53.184;5.486;2022-10-22T09:46:00;11.27;;;3.08;;
53879;SDS011;39791;53.184;5.486;2022-10-22T09:48:28;10.13;;;3.15;;
53879;SDS011;39791;53.184;5.486;2022-10-22T09:53:29;14.07;;;3.63;;
53879;SDS011;39791;53.184;5.486;2022-10-22T09:56:06;18.95;;;3.90;;
53879;SDS011;39791;53.184;5.486;2022-10-22T09:58:51;10.63;;;3.80;;
53879;SDS011;39791;53.184;5.486;2022-10-22T10:01:27;10.63;;;3.67;;
53879;SDS011;39791;53.184;5.486;2022-10-22T10:04:12;17.58;;;3.50;;
53879;SDS011;39791;53.184;5.486;2022-10-22T10:06:40;12.82;;;3.75;;
53879;SDS011;39791;53.184;5.486;2022-10-22T10:09:13;8.10;;;3.10;;
53879;SDS011;39791;53.184;5.486;2022-10-22T10:14:36;14.95;;;3.60;;
53879;SDS011;39791;53.184;5.486;2022-10-22T10:17:11;14.68;;;3.55;;
53879;SDS011;39791;53.184;5.486;2022-10-22T10:22:53;9.20;;;2.50;;
53879;SDS011;39791;53.184;5.486;2022-10-22T10:30:53;12.60;;;2.95;;
53879;SDS011;39791;53.184;5.486;2022-10-22T10:38:38;13.23;;;3.35;;
53879;SDS011;39791;53.184;5.486;2022-10-22T10:41:31;8.60;;;3.20;;
53879;SDS011;39791;53.184;5.486;2022-10-22T10:50:19;9.73;;;3.53;;
53879;SDS011;39791;53.184;5.486;2022-10-22T10:55:40;8.38;;;3.72;;
53879;SDS011;39791;53.184;5.486;2022-10-22T10:58:17;12.65;;;3.75;;
53879;SDS011;39791;53.184;5.486;2022-10-22T11:00:55;10.35;;;3.63;;
53879;SDS011;39791;53.184;5.486;2022-10-22T11:03:39;8.23;;;3.03;;
53879;SDS011;39791;53.184;5.486;2022-10-22T11:06:19;9.32;;;2.60;;
53879;SDS011;39791;53.184;5.486;2022-10-22T11:08:46;15.40;;;2.70;;
53879;SDS011;39791;53.184;5.486;2022-10-22T11:11:36;11.95;;;2.33;;
53879;SDS011;39791;53.184;5.486;2022-10-22T11:14:09;9.95;;;1.83;;
53879;SDS011;39791;53.184;5.486;2022-10-22T11:19:12;14.95;;;2.35;;
53879;SDS011;39791;53.184;5.486;2022-10-22T11:22:00;12.30;;;2.28;;
53879;SDS011;39791;53.184;5.486;2022-10-22T11:24:45;11.77;;;2.17;;
53879;SDS011;39791;53.184;5.486;2022-10-22T11:30:13;11.13;;;2.63;;
53879;SDS011;39791;53.184;5.486;2022-10-22T11:32:42;13.27;;;2.33;;
53879;SDS011;39791;53.184;5.486;2022-10-22T11:35:12;13.13;;;2.85;;
53879;SDS011;39791;53.184;5.486;2022-10-22T11:37:40;11.73;;;2.08;;
53879;SDS011;39791;53.184;5.486;2022-10-22T11:40:18;11.10;;;2.05;;
53879;SDS011;39791;53.184;5.486;2022-10-22T11:43:07;13.05;;;2.20;;
53879;SDS011;39791;53.184;5.486;2022-10-22T11:45:39;7.90;;;2.10;;
53879;SDS011;39791;53.184;5.486;2022-10-22T11:55:49;15.20;;;3.22;;
53879;SDS011;39791;53.184;5.486;2022-10-22T12:14:22;12.55;;;2.50;;
53879;SDS011;39791;53.184;5.486;2022-10-22T12:16:57;13.70;;;2.88;;
53879;SDS011;39791;53.184;5.486;2022-10-22T12:19:30;10.70;;;2.25;;
53879;SDS011;39791;53.184;5.486;2022-10-22T12:22:04;16.02;;;2.40;;
53879;SDS011;39791;53.184;5.486;2022-10-22T12:24:36;15.02;;;2.80;;
53879;SDS011;39791;53.184;5.486;2022-10-22T12:27:14;16.23;;;2.45;;
53879;SDS011;39791;53.184;5.486;2022-10-22T12:29:46;11.88;;;2.50;;
53879;SDS011;39791;53.184;5.486;2022-10-22T12:32:13;14.38;;;2.50;;
53879;SDS011;39791;53.184;5.486;2022-10-22T12:34:46;11.65;;;2.45;;
53879;SDS011;39791;53.184;5.486;2022-10-22T12:37:13;18.23;;;2.70;;
53879;SDS011;39791;53.184;5.486;2022-10-22T12:39:40;12.35;;;1.98;;
53879;SDS011;39791;53.184;5.486;2022-10-22T12:42:06;20.60;;;2.85;;
53879;SDS011;39791;53.184;5.486;2022-10-22T12:44:36;12.02;;;2.03;;
53879;SDS011;39791;53.184;5.486;2022-10-22T12:47:02;14.45;;;2.58;;
53879;SDS011;39791;53.184;5.486;2022-10-22T12:49:33;14.00;;;2.30;;
53879;SDS011;39791;53.184;5.486;2022-10-22T12:52:02;19.75;;;2.58;;
53879;SDS011;39791;53.184;5.486;2022-10-22T12:54:31;18.63;;;3.45;;
53879;SDS011;39791;53.184;5.486;2022-10-22T12:56:58;9.65;;;2.00;;
53879;SDS011;39791;53.184;5.486;2022-10-22T12:59:28;9.13;;;1.63;;
53879;SDS011;39791;53.184;5.486;2022-10-22T13:01:58;11.23;;;2.10;;
53879;SDS011;39791;53.184;5.486;2022-10-22T13:04:31;7.28;;;2.10;;
53879;SDS011;39791;53.184;5.486;2022-10-22T13:09:41;14.27;;;2.72;;
53879;SDS011;39791;53.184;5.486;2022-10-22T13:12:23;14.48;;;2.15;;
53879;SDS011;39791;53.184;5.486;2022-10-22T13:15:17;15.48;;;1.92;;
53879;SDS011;39791;53.184;5.486;2022-10-22T13:18:16;9.68;;;1.95;;
53879;SDS011;39791;53.184;5.486;2022-10-22T13:23:20;13.23;;;1.80;;
53879;SDS011;39791;53.184;5.486;2022-10-22T13:25:58;11.88;;;2.10;;
53879;SDS011;39791;53.184;5.486;2022-10-22T13:28:24;7.68;;;1.83;;
53879;SDS011;39791;53.184;5.486;2022-10-22T13:30:55;12.82;;;2.28;;
53879;SDS011;39791;53.184;5.486;2022-10-22T13:33:40;13.15;;;2.10;;
53879;SDS011;39791;53.184;5.486;2022-10-22T13:36:08;9.55;;;2.03;;
53879;SDS011;39791;53.184;5.486;2022-10-22T13:38:40;12.27;;;1.80;;
53879;SDS011;39791;53.184;5.486;2022-10-22T13:43:56;11.32;;;1.92;;
53879;SDS011;39791;53.184;5.486;2022-10-22T13:46:22;8.77;;;1.90;;
53879;SDS011;39791;53.184;5.486;2022-10-22T13:48:50;16.50;;;2.20;;
53879;SDS011;39791;53.184;5.486;2022-10-22T13:51:22;17.00;;;2.17;;
53879;SDS011;39791;53.184;5.486;2022-10-22T13:53:54;10.93;;;2.15;;
53879;SDS011;39791;53.184;5.486;2022-10-22T13:56:20;14.13;;;2.22;;
53879;SDS011;39791;53.184;5.486;2022-10-22T13:58:46;9.77;;;2.10;;
53879;SDS011;39791;53.184;5.486;2022-10-22T14:01:17;11.50;;;2.17;;
53879;SDS011;39791;53.184;5.486;2022-10-22T14:03:46;7.55;;;1.65;;
53879;SDS011;39791;53.184;5.486;2022-10-22T14:06:14;14.70;;;2.58;;
53879;SDS011;39791;53.184;5.486;2022-10-22T14:08:41;7.70;;;2.33;;
53879;SDS011;39791;53.184;5.486;2022-10-22T14:11:11;8.75;;;1.98;;
53879;SDS011;39791;53.184;5.486;2022-10-22T14:13:37;12.75;;;3.15;;
53879;SDS011;39791;53.184;5.486;2022-10-22T14:16:03;14.02;;;2.67;;
53879;SDS011;39791;53.184;5.486;2022-10-22T14:18:31;23.63;;;3.03;;
53879;SDS011;39791;53.184;5.486;2022-10-22T14:21:00;22.73;;;3.75;;
53879;SDS011;39791;53.184;5.486;2022-10-22T14:23:34;14.45;;;2.80;;
53879;SDS011;39791;53.184;5.486;2022-10-22T14:26:01;16.65;;;2.50;;
53879;SDS011;39791;53.184;5.486;2022-10-22T14:28:27;17.10;;;3.08;;
53879;SDS011;39791;53.184;5.486;2022-10-22T14:30:53;17.83;;;3.10;;
53879;SDS011;39791;53.184;5.486;2022-10-22T14:33:20;20.02;;;3.30;;
53879;SDS011;39791;53.184;5.486;2022-10-22T14:35:47;16.05;;;3.10;;
53879;SDS011;39791;53.184;5.486;2022-10-22T14:38:13;23.00;;;3.38;;
53879;SDS011;39791;53.184;5.486;2022-10-22T14:40:39;24.88;;;4.00;;
53879;SDS011;39791;53.184;5.486;2022-10-22T14:43:09;20.55;;;3.72;;
53879;SDS011;39791;53.184;5.486;2022-10-22T14:45:35;15.27;;;3.60;;
53879;SDS011;39791;53.184;5.486;2022-10-22T14:48:01;22.10;;;3.60;;
53879;SDS011;39791;53.184;5.486;2022-10-22T14:50:26;19.73;;;3.45;;
53879;SDS011;39791;53.184;5.486;2022-10-22T14:52:52;19.65;;;3.30;;
53879;SDS011;39791;53.184;5.486;2022-10-22T14:55:18;13.90;;;2.95;;
53879;SDS011;39791;53.184;5.486;2022-10-22T14:57:43;19.48;;;3.25;;
53879;SDS011;39791;53.184;5.486;2022-10-22T15:00:18;19.05;;;3.78;;
53879;SDS011;39791;53.184;5.486;2022-10-22T15:02:45;19.65;;;3.78;;
53879;SDS011;39791;53.184;5.486;2022-10-22T15:05:11;29.50;;;4.15;;
53879;SDS011;39791;53.184;5.486;2022-10-22T15:07:37;19.95;;;3.53;;
53879;SDS011;39791;53.184;5.486;2022-10-22T15:10:03;17.98;;;3.03;;
53879;SDS011;39791;53.184;5.486;2022-10-22T15:12:30;16.38;;;3.25;;
53879;SDS011;39791;53.184;5.486;2022-10-22T15:14:55;21.77;;;3.17;;
53879;SDS011;39791;53.184;5.486;2022-10-22T15:17:21;22.35;;;3.60;;
53879;SDS011;39791;53.184;5.486;2022-10-22T15:19:46;20.83;;;3.40;;
53879;SDS011;39791;53.184;5.486;2022-10-22T15:22:12;22.20;;;3.67;;
53879;SDS011;39791;53.184;5.486;2022-10-22T15:24:38;17.92;;;3.30;;
53879;SDS011;39791;53.184;5.486;2022-10-22T15:27:05;26.05;;;4.10;;
53879;SDS011;39791;53.184;5.486;2022-10-22T15:29:31;18.00;;;3.75;;
53879;SDS011;39791;53.184;5.486;2022-10-22T15:31:57;21.98;;;3.90;;
53879;SDS011;39791;53.184;5.486;2022-10-22T15:34:26;17.80;;;3.35;;
53879;SDS011;39791;53.184;5.486;2022-10-22T15:36:54;18.42;;;3.88;;
53879;SDS011;39791;53.184;5.486;2022-10-22T15:39:21;22.15;;;3.55;;
53879;SDS011;39791;53.184;5.486;2022-10-22T15:41:47;24.73;;;3.92;;
53879;SDS011;39791;53.184;5.486;2022-10-22T15:44:24;30.13;;;4.72;;
53879;SDS011;39791;53.184;5.486;2022-10-22T15:46:51;31.45;;;4.35;;
53879;SDS011;39791;53.184;5.486;2022-10-22T15:49:19;27.50;;;3.88;;
53879;SDS011;39791;53.184;5.486;2022-10-22T15:51:45;25.13;;;4.10;;
53879;SDS011;39791;53.184;5.486;2022-10-22T15:54:15;27.08;;;4.93;;
53879;SDS011;39791;53.184;5.486;2022-10-22T15:56:43;30.60;;;4.50;;
53879;SDS011;39791;53.184;5.486;2022-10-22T15:59:09;32.42;;;4.53;;
53879;SDS011;39791;53.184;5.486;2022-10-22T16:01:36;26.08;;;3.85;;
53879;SDS011;39791;53.184;5.486;2022-10-22T16:04:02;18.50;;;3.88;;
53879;SDS011;39791;53.184;5.486;2022-10-22T16:06:29;20.55;;;3.75;;
53879;SDS011;39791;53.184;5.486;2022-10-22T16:09:20;24.83;;;4.07;;
53879;SDS011;39791;53.184;5.486;2022-10-22T16:11:47;22.80;;;3.70;;
53879;SDS011;39791;53.184;5.486;2022-10-22T16:14:14;21.80;;;3.97;;
53879;SDS011;39791;53.184;5.486;2022-10-22T16:16:42;30.05;;;4.10;;
53879;SDS011;39791;53.184;5.486;2022-10-22T16:19:10;32.28;;;4.10;;
53879;SDS011;39791;53.184;5.486;2022-10-22T16:21:37;22.92;;;3.95;;
53879;SDS011;39791;53.184;5.486;2022-10-22T16:24:03;25.65;;;4.80;;
53879;SDS011;39791;53.184;5.486;2022-10-22T16:26:29;30.45;;;4.75;;
53879;SDS011;39791;53.184;5.486;2022-10-22T16:28:54;24.25;;;4.03;;
53879;SDS011;39791;53.184;5.486;2022-10-22T16:31:20;21.92;;;3.40;;